Abbottabad Weather



Abbottabad's Current Weather

Temprature 18.86o overcast clouds

overcast clouds

Rain: 0 %

Min Temprature18.86o
Max Temprature18.86o
Humidity42
Wind Speed0.09 m/h
Sun Rise05:00:11
Sun Set19:08:01
Current Time: 24-May-2022 06:55:01
Lat/Lon: 34.1469, 73.2145




Abbottabad's Geo Location



Abbottabad's Weather Forecast

Time Overall Temp Min Temp Max Temp Humidity Wind Speed Rain
24-May-2022 (Tue)
08:00:00 broken clouds 20.760 20.760 20.760 38 1.16 m/h 0 %
11:00:00 broken clouds 22.060 22.060 24.660 35 2.77 m/h 0 %
14:00:00 few clouds 24.940 24.940 27.030 29 3.88 m/h 0 %
17:00:00 few clouds 26.110 26.110 26.110 26 3.74 m/h 0 %
20:00:00 few clouds 20.950 20.950 20.950 37 0.27 m/h 0 %
23:00:00 clear sky 19.480 19.480 19.480 39 1.95 m/h 0 %
25-May-2022 (Wed)
02:00:00 clear sky 18.330 18.330 18.330 42 2.2 m/h 0 %
05:00:00 clear sky 17.550 17.550 17.550 44 2.37 m/h 0 %
08:00:00 clear sky 24.790 24.790 24.790 30 0.81 m/h 0 %
11:00:00 clear sky 29.080 29.080 29.080 23 2.97 m/h 0 %
14:00:00 clear sky 30.900 30.900 30.900 20 3.87 m/h 0 %
17:00:00 clear sky 30.320 30.320 30.320 20 2.96 m/h 0 %
20:00:00 clear sky 24.200 24.200 24.200 28 1.36 m/h 0 %
23:00:00 clear sky 22.760 22.760 22.760 30 2.42 m/h 0 %
26-May-2022 (Thu)
02:00:00 clear sky 21.490 21.490 21.490 33 2.3 m/h 0 %
05:00:00 clear sky 20.660 20.660 20.660 35 2.69 m/h 0 %
08:00:00 clear sky 28.440 28.440 28.440 23 0.82 m/h 0 %
11:00:00 clear sky 32.680 32.680 32.680 18 3.23 m/h 0 %
14:00:00 clear sky 34.380 34.380 34.380 16 4.49 m/h 0 %
17:00:00 clear sky 33.580 33.580 33.580 16 2.1 m/h 0 %
20:00:00 clear sky 26.540 26.540 26.540 24 1.41 m/h 0 %
23:00:00 clear sky 24.560 24.560 24.560 29 3.04 m/h 0 %
27-May-2022 (Fri)
02:00:00 clear sky 23.230 23.230 23.230 31 2.81 m/h 0 %
05:00:00 clear sky 22.860 22.860 22.860 28 3.31 m/h 0 %
08:00:00 clear sky 31.070 31.070 31.070 19 0.78 m/h 0 %
11:00:00 clear sky 35.200 35.200 35.200 13 3.97 m/h 0 %
14:00:00 clear sky 36.750 36.750 36.750 11 4.88 m/h 0 %
17:00:00 clear sky 35.800 35.800 35.800 11 4.06 m/h 0 %
20:00:00 clear sky 28.330 28.330 28.330 18 1.6 m/h 0 %
23:00:00 clear sky 26.170 26.170 26.170 21 3.08 m/h 0 %
28-May-2022 (Sat)
02:00:00 clear sky 24.570 24.570 24.570 24 3.55 m/h 0 %
05:00:00 clear sky 23.270 23.270 23.270 30 2.94 m/h 0 %
08:00:00 few clouds 31.040 31.040 31.040 21 0.99 m/h 0 %
11:00:00 scattered clouds 35.510 35.510 35.510 14 1.85 m/h 0 %
14:00:00 broken clouds 31.080 31.080 31.080 25 1.37 m/h 0 %
17:00:00 light rain 25.630 25.630 25.630 41 6.76 m/h 14 %
20:00:00 broken clouds 22.590 22.590 22.590 50 5.16 m/h 0 %
23:00:00 broken clouds 21.870 21.870 21.870 50 5.52 m/h 0 %
29-May-2022 (Sun)
02:00:00 overcast clouds 20.300 20.300 20.300 50 5.13 m/h 0 %
05:00:00 overcast clouds 20.040 20.040 20.040 49 4.37 m/h 0 %


Abbottabad's Tourist Spots

Historical Places in Abbottabad

Famous Cities (61)